Airport Name : Luxembourg

Other Name : Luxembourg

ICAO : ELLX

IATA : LUX

FAA :

Latitude : 49.626575

Longitude : 6.211517

Country : Luxembourg

Local Date and Time : 25 Jun 2024 07:29

 

TAF (Terminal Aerodrome Forecast)

TAF ELLX 250500Z 2506/2612 05008KT CAVOK

 

METAR (METeorological Aerodrome Report)

ELLX 250520Z 04011KT CAVOK 17/12 Q1016 NOSIG

ELLX 250450Z 04009KT CAVOK 17/12 Q1016 NOSIG

ELLX 250420Z 04011KT CAVOK 17/11 Q1015 NOSIG

ELLX 250350Z 04010KT CAVOK 15/11 Q1016 NOSIG

ELLX 250320Z 04011KT CAVOK 15/12 Q1016 NOSIG

ELLX 250250Z 04010KT CAVOK 15/11 Q1016 NOSIG

ELLX 250220Z AUTO 04008KT 9999 NCD 15/11 Q1016 NOSIG

ELLX 250150Z AUTO 04009KT 9999 NCD 16/11 Q1016 NOSIG